Bettles Field, AK

1:30 PM AKDT on April 29, 2017 (GMT -0800)
MG22KX | | Change Station

Elev 669 ft 66.92 °N, 151.51 °W | Updated 5 minutes ago

Scattered Clouds
Scattered Clouds
43.0 °F
Feels Like 43 °F
N
2.0
Wind Variable Wind from North
Gusts 5.0 mph

Today
High -- | Low -- °F
--% Chance of Precip.
Yesterday
High -- | Low -- °F
Precip. -- in
Pressure 30.03 in
Visibility 10.0 miles
Clouds Few 7000 ft
Scattered Clouds 16000 ft
Windchill 43 °F
Dew Point 18 °F
Humidity 34%
Rainfall in
Snow Depth Not available.
5:21 AM 10:48 PM
Waxing Crescent, 16% visible
METAR PABT 292053Z 00000KT 10SM FEW070 SCT160 07/M08 A2999 RMK AO2 SLP167 T00671083 56010 $
Pressure 30.03 in
Visibility 10.0 miles
Clouds Few 7000 ft
Scattered Clouds 16000 ft
Windchill 43 °F
Dew Point 18 °F
Humidity 34%
Rainfall in
Snow Depth Not available.
5:21 AM 10:48 PM
Waxing Crescent, 16% visible
METAR PABT 292053Z 00000KT 10SM FEW070 SCT160 07/M08 A2999 RMK AO2 SLP167 T00671083 56010 $

Get Severe Weather Alerts

Thanks for signing up!

Be on the lookout for a verification email in your inbox.

You'll start receiving the daily forecast at 8 AM.

×

10-Day Weather Forecast

Almanac

Astronomy

Apr. 29, 2017 Rise Set
Actual Time
Civil Twilight
Nautical Twilight
Astronomical Twilight
Moon
Length of Visible Light
Length of Day
Tomorrow will be .
, % of the Moon is Illuminated

Today's Extremes

State Highs State Lows

Community

WunderPhotos

WunderBlog® & News

Nearby

Air Quality

  Air Quality AQ Index Pollutant
Not available.

Snow Depth

Station Depth Elevation

Earthquake Activity

City Distance Mag. Time & Date
Minimum magnitude displayed is 2.5.

Coastal Water Temperatures

Place Temperature

Stations

Nearby Weather Stations

Station Location Temp. Windchill Dew Point Humidity Wind Precip. Elev Updated Type
                   

Watches & Warnings

There are currently no watches in effect.